createdAt,value
2023-02-16T00:00:31.035Z,99591.91
2023-02-16T00:03:33.655Z,99593.53
2023-02-16T00:06:36.725Z,99603.75
2023-02-16T00:09:40.760Z,99606.56
2023-02-16T00:13:01.145Z,99608.09
2023-02-16T00:16:03.904Z,99599.19
2023-02-16T00:19:19.917Z,99607.13
2023-02-16T00:22:22.927Z,99603.50
2023-02-16T00:25:26.996Z,99605.38
2023-02-16T00:28:29.890Z,99607.50
2023-02-16T00:31:32.893Z,99613.59
2023-02-16T00:34:38.043Z,99603.97
2023-02-16T00:37:40.605Z,99612.75
2023-02-16T00:40:44.812Z,99605.25
2023-02-16T00:43:47.395Z,99607.84
2023-02-16T00:46:50.227Z,99612.53
2023-02-16T00:49:54.725Z,99607.13
2023-02-16T00:52:58.575Z,99604.78
2023-02-16T00:56:02.391Z,99609.72
2023-02-16T00:59:07.515Z,99600.63
2023-02-16T01:02:10.191Z,99609.88
2023-02-16T01:05:13.603Z,99605.66
2023-02-16T01:08:35.535Z,99602.16
2023-02-16T01:11:39.800Z,99608.13
2023-02-16T01:14:42.507Z,99606.47
2023-02-16T01:17:45.146Z,99607.53
2023-02-16T01:20:48.871Z,99607.19
2023-02-16T01:23:51.528Z,99606.25
2023-02-16T01:26:55.474Z,99614.06
2023-02-16T01:29:57.937Z,99612.56
2023-02-16T01:33:00.908Z,99603.53
2023-02-16T01:36:05.589Z,99602.84
2023-02-16T01:39:09.202Z,99604.97
2023-02-16T01:42:24.246Z,99598.53
2023-02-16T01:45:32.074Z,99595.47
2023-02-16T01:48:34.701Z,99591.97
2023-02-16T01:51:45.406Z,99597.03
2023-02-16T01:54:51.633Z,99597.13
2023-02-16T01:57:58.256Z,99586.72
2023-02-16T02:01:30.461Z,99581.91
2023-02-16T02:04:56.321Z,99581.34
2023-02-16T02:08:01.692Z,99570.72
2023-02-16T02:11:09.164Z,99573.97
2023-02-16T02:14:17.809Z,99563.94
2023-02-16T02:17:21.511Z,99575.50
2023-02-16T02:20:48.437Z,99565.09
2023-02-16T02:24:05.953Z,99570.47
2023-02-16T02:27:18.604Z,99568.50
2023-02-16T02:30:31.799Z,99569.06
2023-02-16T02:33:44.751Z,99559.38
2023-02-16T02:36:51.358Z,99567.78
2023-02-16T02:39:59.610Z,99563.19
2023-02-16T02:43:08.955Z,99558.19
2023-02-16T02:46:14.649Z,99560.44
2023-02-16T02:49:17.377Z,99559.13
2023-02-16T02:52:20.461Z,99557.13
2023-02-16T02:55:40.737Z,99562.28
2023-02-16T02:59:03.369Z,99562.38
2023-02-16T03:02:06.033Z,99564.97
2023-02-16T03:05:11.084Z,99553.50
2023-02-16T03:08:15.735Z,99545.81
2023-02-16T03:11:39.049Z,99551.06
2023-02-16T03:14:45.215Z,99551.31
2023-02-16T03:18:05.475Z,99545.22
2023-02-16T03:21:25.702Z,99546.75
2023-02-16T03:24:48.881Z,99549.66
2023-02-16T03:28:09.548Z,99549.56
2023-02-16T03:31:17.648Z,99551.06
2023-02-16T03:34:22.020Z,99542.75
2023-02-16T03:37:24.635Z,99553.75
2023-02-16T03:40:33.279Z,99553.75
2023-02-16T03:43:35.926Z,99541.69
2023-02-16T03:46:40.020Z,99551.16
2023-02-16T03:49:42.649Z,99551.84
2023-02-16T03:52:45.407Z,99554.00
2023-02-16T03:55:49.549Z,99558.66
2023-02-16T03:58:52.357Z,99558.78
2023-02-16T04:01:56.454Z,99571.06
2023-02-16T04:04:59.376Z,99568.03
2023-02-16T04:08:02.411Z,99574.44
2023-02-16T04:11:27.081Z,99574.78
2023-02-16T04:14:28.828Z,99573.84
2023-02-16T04:17:33.547Z,99574.78
2023-02-16T04:20:36.779Z,99578.06
2023-02-16T04:23:39.508Z,99578.63
2023-02-16T04:26:42.192Z,99577.13
2023-02-16T04:29:45.111Z,99575.91
2023-02-16T04:32:49.330Z,99580.00
2023-02-16T04:35:52.005Z,99578.59
2023-02-16T04:38:54.707Z,99586.16
2023-02-16T04:41:57.717Z,99577.41
2023-02-16T04:45:00.337Z,99575.66
2023-02-16T04:48:04.314Z,99573.13
2023-02-16T04:51:07.344Z,99576.81
2023-02-16T04:54:10.127Z,99574.56
2023-02-16T04:57:13.053Z,99579.94
2023-02-16T05:00:16.349Z,99573.75
2023-02-16T05:03:20.533Z,99566.19
2023-02-16T05:06:23.316Z,99571.09
2023-02-16T05:09:26.196Z,99571.09
2023-02-16T05:12:46.394Z,99575.28
2023-02-16T05:15:49.253Z,99569.56
2023-02-16T05:18:53.259Z,99572.03
2023-02-16T05:21:55.935Z,99577.13
2023-02-16T05:24:58.587Z,99575.22
2023-02-16T05:28:01.599Z,99584.31
2023-02-16T05:31:04.578Z,99591.78
2023-02-16T05:34:08.643Z,99583.50
2023-02-16T05:37:11.297Z,99591.75
2023-02-16T05:40:14.809Z,99597.97
2023-02-16T05:43:17.716Z,99592.34
2023-02-16T05:46:20.640Z,99597.34
2023-02-16T05:49:24.830Z,99595.97
2023-02-16T05:52:27.710Z,99600.50
2023-02-16T05:55:30.714Z,99602.28
2023-02-16T05:58:33.480Z,99607.44
2023-02-16T06:01:36.230Z,99600.19
2023-02-16T06:04:40.355Z,99610.22
2023-02-16T06:07:43.077Z,99614.25
2023-02-16T06:10:45.926Z,99607.00
2023-02-16T06:13:50.152Z,99613.34
2023-02-16T06:16:52.809Z,99614.97
2023-02-16T06:19:56.777Z,99622.19
2023-02-16T06:22:59.415Z,99626.22
2023-02-16T06:26:02.075Z,99645.38
2023-02-16T06:29:05.180Z,99639.56
2023-02-16T06:32:07.927Z,99640.53
2023-02-16T06:35:12.102Z,99633.66
2023-02-16T06:38:14.792Z,99636.72
2023-02-16T06:41:31.478Z,99639.75
2023-02-16T06:44:34.292Z,99639.41
2023-02-16T06:47:37.362Z,99637.06
2023-02-16T06:50:41.390Z,99640.84
2023-02-16T06:53:44.036Z,99639.03
2023-02-16T06:56:46.833Z,99641.22
2023-02-16T06:59:49.694Z,99634.00
2023-02-16T07:02:52.426Z,99641.84
2023-02-16T07:05:56.664Z,99648.75
2023-02-16T07:09:00.423Z,99645.72
2023-02-16T07:12:03.062Z,99647.97
2023-02-16T07:15:06.150Z,99640.75
2023-02-16T07:18:08.856Z,99641.91
2023-02-16T07:21:13.056Z,99644.00
2023-02-16T07:24:16.086Z,99636.06
2023-02-16T07:27:18.753Z,99646.72
2023-02-16T07:30:21.761Z,99645.44
2023-02-16T07:33:24.596Z,99648.72
2023-02-16T07:36:28.874Z,99650.22
2023-02-16T07:39:31.871Z,99644.72
2023-02-16T07:42:35.331Z,99651.84
2023-02-16T07:45:38.117Z,99654.16
2023-02-16T07:48:40.731Z,99654.41
2023-02-16T07:51:44.958Z,99655.31
2023-02-16T07:54:47.708Z,99663.94
2023-02-16T07:57:54.714Z,99659.22
2023-02-16T08:00:58.356Z,99664.56
2023-02-16T08:04:01.079Z,99676.28
2023-02-16T08:07:04.954Z,99684.22
2023-02-16T08:10:08.072Z,99682.06
2023-02-16T08:13:10.898Z,99673.13
2023-02-16T08:16:16.008Z,99672.00
2023-02-16T08:19:18.624Z,99677.31
2023-02-16T08:22:22.587Z,99683.53
2023-02-16T08:25:25.764Z,99677.25
2023-02-16T08:28:29.471Z,99672.59
2023-02-16T08:31:34.987Z,99673.72
2023-02-16T08:34:38.732Z,99673.47
2023-02-16T08:37:42.674Z,99681.00
2023-02-16T08:40:48.771Z,99673.94
2023-02-16T08:43:52.371Z,99675.50
2023-02-16T08:46:57.334Z,99669.44
2023-02-16T08:49:59.938Z,99675.94
2023-02-16T08:53:04.079Z,99665.34
2023-02-16T08:56:07.236Z,99671.19
2023-02-16T08:59:09.964Z,99673.53
2023-02-16T09:02:12.842Z,99667.66
2023-02-16T09:05:16.077Z,99671.03
2023-02-16T09:08:20.396Z,99664.63
2023-02-16T09:11:24.027Z,99665.88
2023-02-16T09:14:27.997Z,99663.31
2023-02-16T09:17:31.161Z,99656.84
2023-02-16T09:20:34.118Z,99652.81
2023-02-16T09:23:38.506Z,99660.75
2023-02-16T09:26:42.860Z,99649.66
2023-02-16T09:29:45.470Z,99649.13
2023-02-16T09:32:48.265Z,99658.34
2023-02-16T09:35:50.906Z,99655.34
2023-02-16T09:38:56.360Z,99661.31
2023-02-16T09:42:05.636Z,99654.78
2023-02-16T09:45:10.546Z,99656.66
2023-02-16T09:48:22.945Z,99656.09
2023-02-16T09:51:34.284Z,99650.88
2023-02-16T09:54:43.990Z,99654.63
2023-02-16T09:57:57.194Z,99644.25
2023-02-16T10:01:05.580Z,99638.94
2023-02-16T10:04:28.907Z,99642.03
2023-02-16T10:07:36.398Z,99641.91
2023-02-16T10:10:46.364Z,99635.03
2023-02-16T10:13:54.111Z,99630.44
2023-02-16T10:17:03.167Z,99635.94
2023-02-16T10:20:11.418Z,99633.13
2023-02-16T10:23:21.436Z,99640.22
2023-02-16T10:26:29.518Z,99641.03
2023-02-16T10:29:32.179Z,99640.56
2023-02-16T10:32:44.024Z,99631.56
2023-02-16T10:35:48.522Z,99628.84
2023-02-16T10:38:56.431Z,99623.81
2023-02-16T10:42:04.408Z,99622.88
2023-02-16T10:45:18.860Z,99618.00
2023-02-16T10:48:22.990Z,99614.50
2023-02-16T10:51:28.963Z,99604.28
2023-02-16T10:54:33.213Z,99608.19
2023-02-16T10:57:37.232Z,99597.19
2023-02-16T11:00:48.303Z,99597.97
2023-02-16T11:03:53.135Z,99599.69
2023-02-16T11:07:05.017Z,99598.97
2023-02-16T11:10:27.473Z,99599.31
2023-02-16T11:13:34.011Z,99591.00
2023-02-16T11:16:36.813Z,99589.34
2023-02-16T11:19:40.273Z,99592.00
2023-02-16T11:22:43.031Z,99584.44
2023-02-16T11:25:55.813Z,99570.59
2023-02-16T11:29:09.225Z,99576.09
2023-02-16T11:32:13.780Z,99576.38
2023-02-16T11:35:17.608Z,99562.16
2023-02-16T11:38:29.158Z,99556.25
2023-02-16T11:41:33.578Z,99565.22
2023-02-16T11:44:39.678Z,99561.19
2023-02-16T11:47:43.197Z,99560.75
2023-02-16T11:50:57.904Z,99559.34
2023-02-16T11:54:02.557Z,99563.44
2023-02-16T11:57:09.270Z,99555.53
2023-02-16T12:00:18.161Z,99543.31
2023-02-16T12:03:31.476Z,99544.00
2023-02-16T12:06:47.114Z,99535.13
2023-02-16T12:09:54.979Z,99539.03
2023-02-16T12:13:04.011Z,99535.44
2023-02-16T12:16:17.837Z,99531.38
2023-02-16T12:19:24.413Z,99519.16
2023-02-16T12:22:35.081Z,99519.56
2023-02-16T12:25:40.037Z,99521.91
2023-02-16T12:28:47.981Z,99524.19
2023-02-16T12:32:02.348Z,99505.94
2023-02-16T12:35:14.831Z,99506.47
2023-02-16T12:38:24.582Z,99496.81
2023-02-16T12:41:35.976Z,99503.72
2023-02-16T12:44:42.801Z,99492.94
2023-02-16T12:47:51.255Z,99482.63
2023-02-16T12:50:54.289Z,99482.13
2023-02-16T12:54:01.167Z,99476.03
2023-02-16T12:57:08.162Z,99473.75
2023-02-16T13:00:17.778Z,99463.63
2023-02-16T13:03:35.074Z,99477.31
2023-02-16T13:06:41.902Z,99460.38
2023-02-16T13:09:51.374Z,99450.13
2023-02-16T13:12:57.230Z,99441.84
2023-02-16T13:16:03.305Z,99445.84
2023-02-16T13:19:07.545Z,99445.88
2023-02-16T13:22:53.732Z,99446.38
2023-02-16T13:26:10.813Z,99442.69
2023-02-16T13:29:30.225Z,99441.41
2023-02-16T13:33:00.227Z,99442.13
2023-02-16T13:36:29.753Z,99431.63
2023-02-16T13:39:42.785Z,99441.47
2023-02-16T13:42:59.311Z,99435.59
2023-02-16T13:46:05.822Z,99447.00
2023-02-16T13:49:28.000Z,99443.56
2023-02-16T13:52:35.101Z,99440.44
2023-02-16T13:55:40.447Z,99436.72
2023-02-16T13:58:43.241Z,99437.78
2023-02-16T14:01:47.309Z,99443.06
2023-02-16T14:05:05.372Z,99439.72
2023-02-16T14:08:18.852Z,99437.75
2023-02-16T14:11:21.774Z,99439.06
2023-02-16T14:14:31.448Z,99436.63
2023-02-16T14:17:35.973Z,99431.97
2023-02-16T14:20:38.912Z,99437.91
2023-02-16T14:23:43.046Z,99440.91
2023-02-16T14:26:53.761Z,99441.81
2023-02-16T14:29:58.358Z,99434.06
2023-02-16T14:33:06.876Z,99431.56
2023-02-16T14:36:15.865Z,99436.31
2023-02-16T14:39:22.889Z,99439.69
2023-02-16T14:42:30.156Z,99447.44
2023-02-16T14:45:51.805Z,99445.56
2023-02-16T14:49:18.150Z,99446.00
2023-02-16T14:52:38.727Z,99448.19
2023-02-16T14:55:55.013Z,99451.97
2023-02-16T14:59:01.535Z,99457.78
2023-02-16T15:02:29.508Z,99451.66
2023-02-16T15:05:34.374Z,99447.41
2023-02-16T15:08:40.303Z,99447.63
2023-02-16T15:12:07.998Z,99445.44
2023-02-16T15:15:19.648Z,99437.13
2023-02-16T15:18:24.039Z,99446.72
2023-02-16T15:21:28.491Z,99445.31
2023-02-16T15:24:31.291Z,99433.41
2023-02-16T15:27:35.396Z,99420.44
2023-02-16T15:30:41.242Z,99424.28
2023-02-16T15:33:46.215Z,99426.50
2023-02-16T15:36:48.816Z,99422.72
2023-02-16T15:40:08.760Z,99411.31
2023-02-16T15:43:26.816Z,99407.16
2023-02-16T15:46:31.738Z,99405.81
2023-02-16T15:49:34.975Z,99410.28
2023-02-16T15:52:38.756Z,99415.47
2023-02-16T15:55:45.834Z,99413.09
2023-02-16T15:58:50.250Z,99412.16
2023-02-16T16:01:58.177Z,99419.44
2023-02-16T16:05:03.428Z,99406.69
2023-02-16T16:08:06.363Z,99402.16
2023-02-16T16:11:09.415Z,99404.41
2023-02-16T16:14:14.685Z,99406.66
2023-02-16T16:17:28.037Z,99404.09
2023-02-16T16:20:32.228Z,99417.00
2023-02-16T16:23:34.833Z,99417.34
2023-02-16T16:26:52.697Z,99413.47
2023-02-16T16:30:11.396Z,99405.53
2023-02-16T16:33:15.916Z,99410.53
2023-02-16T16:36:18.587Z,99426.19
2023-02-16T16:39:25.414Z,99419.91
2023-02-16T16:42:28.468Z,99420.22
2023-02-16T16:45:39.901Z,99422.28
2023-02-16T16:48:46.701Z,99421.50
2023-02-16T16:51:53.267Z,99409.38
2023-02-16T16:54:55.882Z,99410.16
2023-02-16T16:58:00.600Z,99411.94
2023-02-16T17:01:05.176Z,99420.44
2023-02-16T17:04:08.011Z,99418.13
2023-02-16T17:07:10.641Z,99417.41
2023-02-16T17:10:13.381Z,99417.97
2023-02-16T17:13:17.490Z,99426.91
2023-02-16T17:16:22.943Z,99416.19
2023-02-16T17:19:27.192Z,99426.66
2023-02-16T17:22:29.876Z,99425.28
2023-02-16T17:25:34.296Z,99431.53
2023-02-16T17:28:37.563Z,99430.66
2023-02-16T17:31:42.394Z,99431.09
2023-02-16T17:34:45.717Z,99432.97
2023-02-16T17:37:49.371Z,99439.41
2023-02-16T17:40:52.684Z,99443.59
2023-02-16T17:43:56.164Z,99438.72
2023-02-16T17:47:00.249Z,99447.69
2023-02-16T17:50:03.876Z,99444.72
2023-02-16T17:53:10.613Z,99449.22
2023-02-16T17:56:14.621Z,99451.16
2023-02-16T17:59:17.428Z,99456.91
2023-02-16T18:02:21.748Z,99451.84
2023-02-16T18:05:24.724Z,99450.88
2023-02-16T18:08:27.375Z,99453.91
2023-02-16T18:11:30.086Z,99452.19
2023-02-16T18:14:32.806Z,99461.88
2023-02-16T18:17:36.858Z,99464.09
2023-02-16T18:20:39.860Z,99456.47
2023-02-16T18:23:42.529Z,99463.88
2023-02-16T18:26:45.411Z,99463.97
2023-02-16T18:29:48.157Z,99460.88
2023-02-16T18:32:52.153Z,99465.44
2023-02-16T18:35:57.151Z,99466.88
2023-02-16T18:39:00.022Z,99463.94
2023-02-16T18:42:02.922Z,99462.91
2023-02-16T18:45:06.953Z,99468.81
2023-02-16T18:48:11.402Z,99477.00
2023-02-16T18:51:14.196Z,99475.72
2023-02-16T18:54:16.859Z,99477.41
2023-02-16T18:57:19.564Z,99480.16
2023-02-16T19:00:22.285Z,99468.69
2023-02-16T19:03:27.655Z,99472.97
2023-02-16T19:06:31.304Z,99479.44
2023-02-16T19:09:33.902Z,99478.91
2023-02-16T19:12:36.625Z,99480.16
2023-02-16T19:15:39.371Z,99476.91
2023-02-16T19:18:43.400Z,99465.16
2023-02-16T19:21:46.018Z,99473.34
2023-02-16T19:24:50.364Z,99466.63
2023-02-16T19:27:53.120Z,99470.44
2023-02-16T19:30:57.579Z,99472.03
2023-02-16T19:34:01.654Z,99473.03
2023-02-16T19:37:04.290Z,99458.53
2023-02-16T19:40:10.431Z,99463.38
2023-02-16T19:43:13.598Z,99459.28
2023-02-16T19:46:16.419Z,99459.03
2023-02-16T19:49:20.698Z,99454.22
2023-02-16T19:52:23.709Z,99448.13
2023-02-16T19:55:26.344Z,99450.91
2023-02-16T19:58:29.162Z,99447.44
2023-02-16T20:01:31.977Z,99459.56
2023-02-16T20:04:36.400Z,99453.63
2023-02-16T20:07:38.976Z,99464.94
2023-02-16T20:10:44.300Z,99458.50
2023-02-16T20:13:47.505Z,99453.00
2023-02-16T20:16:51.855Z,99463.97
2023-02-16T20:19:56.035Z,99464.91
2023-02-16T20:22:58.726Z,99464.59
2023-02-16T20:26:01.442Z,99462.25
2023-02-16T20:29:05.059Z,99465.38
2023-02-16T20:32:08.188Z,99471.97
2023-02-16T20:35:12.632Z,99481.59
2023-02-16T20:38:15.960Z,99480.56
2023-02-16T20:41:19.661Z,99484.16
2023-02-16T20:44:22.724Z,99483.84
2023-02-16T20:47:25.524Z,99478.50
2023-02-16T20:50:29.490Z,99484.31
2023-02-16T20:53:33.594Z,99485.69
2023-02-16T20:56:36.960Z,99476.22
2023-02-16T20:59:39.851Z,99475.50
2023-02-16T21:02:43.272Z,99469.91
2023-02-16T21:05:47.397Z,99467.50
2023-02-16T21:08:50.220Z,99463.03
2023-02-16T21:11:52.860Z,99456.56
2023-02-16T21:14:55.870Z,99456.56
2023-02-16T21:17:58.578Z,99455.13
2023-02-16T21:21:03.227Z,99446.84
2023-02-16T21:24:06.244Z,99448.44
2023-02-16T21:27:09.352Z,99454.53
2023-02-16T21:30:13.236Z,99455.53
2023-02-16T21:33:15.973Z,99452.72
2023-02-16T21:36:22.384Z,99458.59
2023-02-16T21:43:10.984Z,99458.41
2023-02-16T21:46:14.052Z,99455.56
2023-02-16T21:49:18.278Z,99449.66
2023-02-16T21:52:22.996Z,99445.53
2023-02-16T21:55:52.238Z,99440.97
2023-02-16T21:58:54.865Z,99438.69
2023-02-16T22:01:57.584Z,99431.56
2023-02-16T22:05:00.195Z,99433.91
2023-02-16T22:08:04.399Z,99427.22
2023-02-16T22:11:08.820Z,99427.41
2023-02-16T22:14:12.006Z,99416.09
2023-02-16T22:17:14.756Z,99425.38
2023-02-16T22:20:18.013Z,99422.81
2023-02-16T22:23:21.969Z,99418.09
2023-02-16T22:26:26.235Z,99433.22
2023-02-16T22:29:28.992Z,99428.47
2023-02-16T22:32:31.689Z,99426.28
2023-02-16T22:35:34.502Z,99428.63
2023-02-16T22:38:38.717Z,99424.28
2023-02-16T22:41:41.529Z,99421.22
2023-02-16T22:44:44.152Z,99417.88
2023-02-16T22:47:46.970Z,99416.19
2023-02-16T22:50:58.203Z,99423.28
2023-02-16T22:54:03.088Z,99418.00
2023-02-16T22:57:07.933Z,99417.88
2023-02-16T23:00:12.809Z,99420.31
2023-02-16T23:03:15.742Z,99421.22
2023-02-16T23:06:20.221Z,99423.91
2023-02-16T23:09:24.549Z,99420.16
2023-02-16T23:12:28.236Z,99425.56
2023-02-16T23:15:30.775Z,99424.06
2023-02-16T23:18:33.614Z,99421.00
2023-02-16T23:21:36.290Z,99419.25
2023-02-16T23:24:41.271Z,99418.09
2023-02-16T23:27:43.988Z,99424.06
2023-02-16T23:30:47.635Z,99426.91
2023-02-16T23:33:50.307Z,99432.66
2023-02-16T23:36:53.020Z,99429.91
2023-02-16T23:39:56.952Z,99422.34
2023-02-16T23:42:59.617Z,99432.56
2023-02-16T23:46:03.163Z,99421.41
2023-02-16T23:49:05.690Z,99429.63
2023-02-16T23:52:08.278Z,99418.06
2023-02-16T23:55:12.526Z,99412.91
2023-02-16T23:58:15.261Z,99416.94
